createdAt,value
2023-02-14T00:00:50.090Z,33.53
2023-02-14T00:03:16.822Z,33.06
2023-02-14T00:05:43.429Z,33.20
2023-02-14T00:08:10.289Z,32.34
2023-02-14T00:10:36.885Z,32.36
2023-02-14T00:13:04.681Z,31.21
2023-02-14T00:15:31.319Z,31.31
2023-02-14T00:18:00.923Z,30.08
2023-02-14T00:20:28.463Z,30.07
2023-02-14T00:22:55.190Z,28.96
2023-02-14T00:25:21.766Z,29.63
2023-02-14T00:27:48.387Z,28.81
2023-02-14T00:30:15.365Z,29.23
2023-02-14T00:32:43.052Z,29.67
2023-02-14T00:35:10.702Z,29.02
2023-02-14T00:37:37.723Z,29.07
2023-02-14T00:40:06.333Z,29.58
2023-02-14T00:42:33.117Z,30.13
2023-02-14T00:44:59.671Z,30.55
2023-02-14T00:47:26.353Z,30.37
2023-02-14T00:49:52.940Z,29.83
2023-02-14T00:52:19.514Z,29.76
2023-02-14T00:54:46.176Z,28.86
2023-02-14T00:57:12.768Z,29.12
2023-02-14T00:59:39.341Z,29.98
2023-02-14T01:02:05.938Z,29.41
2023-02-14T01:04:32.599Z,29.41
2023-02-14T01:06:59.116Z,29.85
2023-02-14T01:09:25.642Z,29.91
2023-02-14T01:11:52.177Z,29.77
2023-02-14T01:14:18.701Z,30.03
2023-02-14T01:16:45.440Z,29.33
2023-02-14T01:19:12.074Z,29.46
2023-02-14T01:21:38.616Z,28.94
2023-02-14T01:24:07.671Z,29.21
2023-02-14T01:26:35.185Z,31.37
2023-02-14T01:29:03.149Z,30.41
2023-02-14T01:31:32.574Z,30.13
2023-02-14T01:34:00.311Z,29.83
2023-02-14T01:36:38.867Z,29.91
2023-02-14T01:39:13.483Z,29.98
2023-02-14T01:41:43.178Z,29.48
2023-02-14T01:44:15.368Z,30.09
2023-02-14T01:46:43.841Z,30.18
2023-02-14T01:49:16.401Z,29.00
2023-02-14T01:51:53.110Z,28.82
2023-02-14T01:54:25.983Z,29.14
2023-02-14T01:57:00.310Z,29.91
2023-02-14T01:59:34.550Z,29.96
2023-02-14T02:02:01.287Z,28.97
2023-02-14T02:04:41.119Z,29.60
2023-02-14T02:07:14.931Z,29.61
2023-02-14T02:09:51.298Z,29.34
2023-02-14T02:12:17.965Z,29.50
2023-02-14T02:14:45.743Z,29.39
2023-02-14T02:17:12.276Z,29.23
2023-02-14T02:20:20.631Z,29.84
2023-02-14T02:22:56.282Z,29.29
2023-02-14T02:25:37.956Z,29.20
2023-02-14T02:28:43.463Z,28.58
2023-02-14T02:31:47.930Z,28.66
2023-02-14T02:34:52.278Z,27.75
2023-02-14T02:37:18.712Z,27.69
2023-02-14T02:39:45.243Z,27.73
2023-02-14T02:42:26.856Z,28.28
2023-02-14T02:45:11.099Z,26.89
2023-02-14T02:47:45.995Z,27.66
2023-02-14T02:51:04.426Z,27.01
2023-02-14T02:53:58.034Z,27.58
2023-02-14T02:56:46.415Z,27.15
2023-02-14T02:59:21.850Z,26.89
2023-02-14T03:01:56.794Z,27.01
2023-02-14T03:04:46.331Z,26.58
2023-02-14T03:07:32.061Z,26.24
2023-02-14T03:10:01.475Z,26.06
2023-02-14T03:12:33.811Z,26.51
2023-02-14T03:15:22.636Z,26.78
2023-02-14T03:18:30.007Z,26.38
2023-02-14T03:21:35.331Z,26.31
2023-02-14T03:24:22.485Z,27.11
2023-02-14T03:26:58.090Z,26.59
2023-02-14T03:29:27.597Z,27.19
2023-02-14T03:32:17.500Z,26.71
2023-02-14T03:34:46.810Z,27.39
2023-02-14T03:37:39.377Z,28.53
2023-02-14T03:40:27.259Z,27.68
2023-02-14T03:43:07.928Z,27.87
2023-02-14T03:45:46.013Z,27.25
2023-02-14T03:48:16.466Z,27.10
2023-02-14T03:50:49.685Z,26.65
2023-02-14T03:53:22.850Z,26.44
2023-02-14T03:55:57.955Z,27.17
2023-02-14T03:58:30.222Z,25.82
2023-02-14T04:01:05.442Z,25.49
2023-02-14T04:03:37.496Z,24.83
2023-02-14T04:06:04.356Z,23.87
2023-02-14T04:08:30.956Z,23.24
2023-02-14T04:11:01.798Z,23.57
2023-02-14T04:13:28.821Z,23.87
2023-02-14T04:15:55.385Z,23.56
2023-02-14T04:18:40.441Z,23.09
2023-02-14T04:21:08.194Z,23.31
2023-02-14T04:23:34.793Z,23.06
2023-02-14T04:26:03.579Z,23.26
2023-02-14T04:28:30.871Z,22.64
2023-02-14T04:31:01.008Z,23.67
2023-02-14T04:33:27.900Z,23.36
2023-02-14T04:35:54.864Z,24.56
2023-02-14T04:38:21.561Z,24.56
2023-02-14T04:40:50.017Z,24.23
2023-02-14T04:43:16.654Z,25.40
2023-02-14T04:45:43.215Z,25.93
2023-02-14T04:48:10.104Z,25.39
2023-02-14T04:50:36.690Z,25.85
2023-02-14T04:53:03.274Z,25.99
2023-02-14T04:55:30.165Z,25.32
2023-02-14T04:57:56.803Z,25.75
2023-02-14T05:00:24.114Z,26.01
2023-02-14T05:02:50.670Z,25.96
2023-02-14T05:05:17.279Z,25.40
2023-02-14T05:07:47.624Z,25.75
2023-02-14T05:10:15.297Z,24.92
2023-02-14T05:12:42.032Z,24.63
2023-02-14T05:15:09.540Z,25.64
2023-02-14T05:17:36.281Z,25.81
2023-02-14T05:20:06.705Z,25.34
2023-02-14T05:22:33.337Z,25.37
2023-02-14T05:24:59.903Z,25.48
2023-02-14T05:27:26.422Z,25.59
2023-02-14T05:29:53.106Z,25.65
2023-02-14T05:32:19.658Z,25.19
2023-02-14T05:34:46.234Z,24.85
2023-02-14T05:37:12.808Z,24.97
2023-02-14T05:39:39.456Z,24.80
2023-02-14T05:42:06.015Z,24.61
2023-02-14T05:44:32.584Z,24.39
2023-02-14T05:46:59.153Z,24.52
2023-02-14T05:49:25.757Z,24.29
2023-02-14T05:51:52.315Z,25.19
2023-02-14T05:54:18.901Z,26.23
2023-02-14T05:56:45.502Z,26.88
2023-02-14T05:59:14.129Z,26.85
2023-02-14T06:01:40.877Z,27.89
2023-02-14T06:04:07.522Z,27.26
2023-02-14T06:06:36.334Z,26.08
2023-02-14T06:09:03.382Z,25.84
2023-02-14T06:11:30.195Z,25.79
2023-02-14T06:13:56.851Z,26.29
2023-02-14T06:16:23.580Z,25.66
2023-02-14T06:18:50.146Z,25.52
2023-02-14T06:21:16.732Z,25.14
2023-02-14T06:23:43.298Z,24.54
2023-02-14T06:26:09.943Z,25.02
2023-02-14T06:28:36.532Z,25.92
2023-02-14T06:31:04.883Z,25.67
2023-02-14T06:33:31.703Z,26.31
2023-02-14T06:35:58.327Z,26.15
2023-02-14T06:38:25.040Z,26.20
2023-02-14T06:40:51.566Z,27.35
2023-02-14T06:43:18.085Z,27.76
2023-02-14T06:45:46.583Z,27.31
2023-02-14T06:48:13.161Z,26.79
2023-02-14T06:50:39.833Z,27.10
2023-02-14T06:53:06.449Z,27.16
2023-02-14T06:55:33.086Z,27.58
2023-02-14T06:57:59.677Z,27.66
2023-02-14T07:00:26.296Z,26.32
2023-02-14T07:02:52.950Z,25.88
2023-02-14T07:05:19.634Z,26.32
2023-02-14T07:07:46.511Z,25.51
2023-02-14T07:10:13.433Z,26.38
2023-02-14T07:12:40.390Z,25.42
2023-02-14T07:15:09.254Z,25.81
2023-02-14T07:17:35.875Z,25.16
2023-02-14T07:20:03.562Z,25.55
2023-02-14T07:22:30.475Z,24.80
2023-02-14T07:24:57.336Z,25.13
2023-02-14T07:27:23.937Z,24.44
2023-02-14T07:29:50.645Z,25.18
2023-02-14T07:32:17.481Z,26.72
2023-02-14T07:34:44.641Z,28.36
2023-02-14T07:37:11.346Z,29.94
2023-02-14T07:39:37.904Z,29.57
2023-02-14T07:42:04.521Z,29.62
2023-02-14T07:44:31.119Z,29.70
2023-02-14T07:46:57.641Z,31.28
2023-02-14T07:49:24.307Z,29.38
2023-02-14T07:51:50.851Z,28.99
2023-02-14T07:54:18.686Z,28.25
2023-02-14T07:56:46.156Z,29.34
2023-02-14T07:59:12.729Z,30.74
2023-02-14T08:01:48.617Z,32.62
2023-02-14T08:04:15.173Z,32.89
2023-02-14T08:06:42.885Z,32.13
2023-02-14T08:09:10.642Z,31.51
2023-02-14T08:11:56.163Z,31.18
2023-02-14T08:14:22.985Z,31.08
2023-02-14T08:16:49.824Z,31.33
2023-02-14T08:19:16.332Z,30.92
2023-02-14T08:21:43.333Z,31.44
2023-02-14T08:24:09.926Z,30.94
2023-02-14T08:26:36.534Z,31.77
2023-02-14T08:29:03.138Z,31.15
2023-02-14T08:31:36.496Z,32.66
2023-02-14T08:34:07.148Z,32.67
2023-02-14T08:36:34.857Z,33.93
2023-02-14T08:39:04.036Z,33.09
2023-02-14T08:41:30.829Z,33.49
2023-02-14T08:43:57.486Z,33.65
2023-02-14T08:46:24.091Z,33.77
2023-02-14T08:48:52.223Z,33.31
2023-02-14T08:51:19.296Z,34.11
2023-02-14T08:53:46.336Z,35.00
2023-02-14T08:56:17.839Z,33.91
2023-02-14T08:58:44.394Z,34.57
2023-02-14T09:01:13.995Z,35.58
2023-02-14T09:03:40.676Z,36.97
2023-02-14T09:06:09.980Z,36.91
2023-02-14T09:08:38.124Z,37.72
2023-02-14T09:11:14.356Z,39.26
2023-02-14T09:13:42.930Z,38.39
2023-02-14T09:16:11.630Z,38.20
2023-02-14T09:18:38.827Z,38.77
2023-02-14T09:21:10.503Z,40.68
2023-02-14T09:23:39.209Z,40.81
2023-02-14T09:26:09.124Z,41.17
2023-02-14T09:28:46.398Z,42.05
2023-02-14T09:31:13.168Z,41.67
2023-02-14T09:33:43.625Z,42.24
2023-02-14T09:36:15.842Z,41.65
2023-02-14T09:38:44.818Z,42.26
2023-02-14T09:41:49.479Z,42.21
2023-02-14T09:44:35.152Z,42.06
2023-02-14T09:47:16.210Z,41.75
2023-02-14T09:49:43.983Z,40.34
2023-02-14T09:52:16.372Z,40.70
2023-02-14T09:54:49.221Z,39.30
2023-02-14T09:57:38.933Z,38.72
2023-02-14T10:00:24.082Z,38.95
2023-02-14T10:03:00.405Z,38.00
2023-02-14T10:05:32.250Z,38.17
2023-02-14T10:08:36.112Z,37.54
2023-02-14T10:11:10.081Z,36.53
2023-02-14T10:13:50.032Z,36.35
2023-02-14T10:16:54.240Z,35.10
2023-02-14T10:19:38.311Z,35.07
2023-02-14T10:22:14.189Z,35.46
2023-02-14T10:24:50.996Z,35.62
2023-02-14T10:27:32.681Z,33.67
2023-02-14T10:29:59.476Z,33.60
2023-02-14T10:32:45.121Z,32.96
2023-02-14T10:35:38.697Z,33.25
2023-02-14T10:38:28.638Z,32.01
2023-02-14T10:41:31.938Z,33.35
2023-02-14T10:44:40.783Z,32.29
2023-02-14T10:47:18.133Z,32.72
2023-02-14T10:50:03.240Z,32.73
2023-02-14T10:52:40.182Z,32.57
2023-02-14T10:55:49.257Z,31.98
2023-02-14T10:58:21.144Z,32.83
2023-02-14T11:01:03.457Z,31.61
2023-02-14T11:03:30.494Z,31.95
2023-02-14T11:05:57.277Z,32.68
2023-02-14T11:08:38.002Z,31.17
2023-02-14T11:11:29.216Z,31.21
2023-02-14T11:13:56.090Z,31.67
2023-02-14T11:16:35.338Z,31.47
2023-02-14T11:19:36.077Z,31.47
2023-02-14T11:22:04.312Z,32.38
2023-02-14T11:24:41.426Z,32.15
2023-02-14T11:27:19.410Z,31.68
2023-02-14T11:29:52.213Z,31.29
2023-02-14T11:32:34.308Z,31.61
2023-02-14T11:35:20.650Z,31.24
2023-02-14T11:37:53.561Z,31.19
2023-02-14T11:40:37.286Z,31.52
2023-02-14T11:43:15.675Z,31.00
2023-02-14T11:45:44.462Z,32.24
2023-02-14T11:48:37.655Z,32.26
2023-02-14T11:51:14.959Z,31.29
2023-02-14T11:53:53.869Z,31.92
2023-02-14T11:56:22.113Z,31.36
2023-02-14T11:59:03.721Z,32.07
2023-02-14T12:01:34.524Z,31.50
2023-02-14T12:04:07.484Z,31.86
2023-02-14T12:06:41.074Z,32.14
2023-02-14T12:09:29.486Z,32.74
2023-02-14T12:12:14.721Z,31.18
2023-02-14T12:14:41.853Z,30.67
2023-02-14T12:17:11.466Z,31.29
2023-02-14T12:20:08.931Z,31.52
2023-02-14T12:22:47.451Z,31.36
2023-02-14T12:25:27.371Z,32.09
2023-02-14T12:28:03.557Z,31.58
2023-02-14T12:30:35.177Z,31.84
2023-02-14T12:33:06.641Z,31.76
2023-02-14T12:35:54.917Z,30.83
2023-02-14T12:38:43.423Z,30.61
2023-02-14T12:41:42.926Z,31.93
2023-02-14T12:44:35.654Z,32.39
2023-02-14T12:47:16.531Z,31.48
2023-02-14T12:50:06.166Z,32.75
2023-02-14T12:52:57.246Z,31.30
2023-02-14T12:56:00.342Z,30.78
2023-02-14T12:58:45.049Z,30.41
2023-02-14T13:01:12.162Z,30.66
2023-02-14T13:03:57.956Z,30.24
2023-02-14T13:06:49.587Z,30.14
2023-02-14T13:09:40.474Z,30.37
2023-02-14T13:12:36.396Z,29.81
2023-02-14T13:15:46.716Z,30.65
2023-02-14T13:18:50.835Z,31.55
2023-02-14T13:21:24.372Z,31.07
2023-02-14T13:24:25.511Z,31.13
2023-02-14T13:26:59.775Z,30.26
2023-02-14T13:29:36.142Z,31.20
2023-02-14T13:32:04.544Z,31.37
2023-02-14T13:34:41.568Z,30.50
2023-02-14T13:37:12.820Z,30.68
2023-02-14T13:39:56.809Z,30.65
2023-02-14T13:42:48.167Z,30.47
2023-02-14T13:45:30.536Z,30.34
2023-02-14T13:48:09.974Z,30.92
2023-02-14T13:50:50.210Z,30.33
2023-02-14T13:53:34.708Z,29.71
2023-02-14T13:56:23.369Z,30.03
2023-02-14T13:59:01.046Z,30.24
2023-02-14T14:01:32.275Z,30.39
2023-02-14T14:04:19.777Z,29.98
2023-02-14T14:07:23.288Z,29.74
2023-02-14T14:09:49.958Z,29.57
2023-02-14T14:12:28.769Z,29.83
2023-02-14T14:15:07.990Z,30.30
2023-02-14T14:17:36.446Z,29.11
2023-02-14T14:20:25.769Z,28.97
2023-02-14T14:22:58.850Z,28.58
2023-02-14T14:25:39.491Z,29.63
2023-02-14T14:28:26.591Z,30.81
2023-02-14T14:30:53.747Z,29.48
2023-02-14T14:33:33.157Z,29.52
2023-02-14T14:36:07.675Z,29.30
2023-02-14T14:38:45.643Z,29.56
2023-02-14T14:41:12.274Z,29.24
2023-02-14T14:43:40.518Z,29.67
2023-02-14T14:46:15.745Z,29.22
2023-02-14T14:48:52.110Z,28.68
2023-02-14T14:51:33.332Z,29.64
2023-02-14T14:54:06.969Z,29.54
2023-02-14T14:56:57.128Z,29.69
2023-02-14T14:59:30.816Z,29.44
2023-02-14T15:01:57.726Z,28.85
2023-02-14T15:04:35.000Z,28.34
2023-02-14T15:07:34.633Z,29.38
2023-02-14T15:10:01.953Z,29.15
2023-02-14T15:12:48.481Z,28.95
2023-02-14T15:15:18.888Z,28.24
2023-02-14T15:17:47.136Z,28.74
2023-02-14T15:20:21.150Z,27.44
2023-02-14T15:22:51.712Z,27.98
2023-02-14T15:25:44.549Z,27.24
2023-02-14T15:28:26.122Z,27.79
2023-02-14T15:30:59.202Z,27.70
2023-02-14T15:33:26.904Z,27.80
2023-02-14T15:35:54.251Z,28.46
2023-02-14T15:38:23.848Z,28.43
2023-02-14T15:40:51.915Z,28.21
2023-02-14T15:43:18.554Z,28.51
2023-02-14T15:45:50.300Z,28.54
2023-02-14T15:48:28.556Z,27.98
2023-02-14T15:50:59.136Z,27.35
2023-02-14T15:53:35.024Z,27.45
2023-02-14T15:56:06.246Z,27.86
2023-02-14T15:58:36.159Z,27.69
2023-02-14T16:01:04.140Z,28.54
2023-02-14T16:03:38.774Z,27.98
2023-02-14T16:06:05.651Z,28.08
2023-02-14T16:08:41.051Z,28.45
2023-02-14T16:11:32.514Z,28.09
2023-02-14T16:14:19.278Z,27.48
2023-02-14T16:16:57.759Z,27.49
2023-02-14T16:19:44.923Z,27.23
2023-02-14T16:22:32.145Z,27.86
2023-02-14T16:24:59.387Z,27.57
2023-02-14T16:27:25.987Z,27.89
2023-02-14T16:29:52.730Z,27.17
2023-02-14T16:32:24.289Z,26.99
2023-02-14T16:34:51.336Z,27.65
2023-02-14T16:37:25.002Z,27.26
2023-02-14T16:39:54.534Z,27.34
2023-02-14T16:42:21.198Z,26.53
2023-02-14T16:44:48.488Z,26.98
2023-02-14T16:47:17.218Z,27.96
2023-02-14T16:49:44.084Z,28.69
2023-02-14T16:52:17.113Z,28.21
2023-02-14T16:54:44.235Z,29.01
2023-02-14T16:57:20.322Z,29.11
2023-02-14T16:59:47.343Z,28.59
2023-02-14T17:02:14.235Z,28.93
2023-02-14T17:04:40.815Z,29.38
2023-02-14T17:07:08.096Z,30.77
2023-02-14T17:09:41.257Z,30.43
2023-02-14T17:12:16.898Z,30.92
2023-02-14T17:14:49.620Z,30.52
2023-02-14T17:17:16.851Z,31.16
2023-02-14T17:19:44.182Z,31.16
2023-02-14T17:22:13.521Z,31.47
2023-02-14T17:24:40.647Z,31.60
2023-02-14T17:27:08.510Z,31.72
2023-02-14T17:29:35.731Z,31.33
2023-02-14T17:32:02.461Z,30.47
2023-02-14T17:34:33.210Z,30.50
2023-02-14T17:36:59.834Z,30.24
2023-02-14T17:39:26.813Z,31.70
2023-02-14T17:41:53.371Z,31.07
2023-02-14T17:44:19.935Z,31.04
2023-02-14T17:46:46.572Z,31.12
2023-02-14T17:49:13.114Z,31.43
2023-02-14T17:51:39.617Z,31.02
2023-02-14T17:54:06.213Z,31.44
2023-02-14T17:56:33.002Z,31.34
2023-02-14T17:58:59.867Z,31.55
2023-02-14T18:01:31.392Z,30.61
2023-02-14T18:03:58.197Z,31.58
2023-02-14T18:06:26.718Z,33.32
2023-02-14T18:08:56.714Z,40.20
2023-02-14T18:11:26.079Z,51.11
2023-02-14T18:13:56.667Z,59.07
2023-02-14T18:16:24.832Z,51.69
2023-02-14T18:18:52.311Z,49.78
2023-02-14T18:21:21.654Z,46.71
2023-02-14T18:23:48.811Z,45.54
2023-02-14T18:26:18.009Z,43.00
2023-02-14T18:28:44.894Z,42.00
2023-02-14T18:31:18.116Z,41.81
2023-02-14T18:33:46.722Z,40.50
2023-02-14T18:36:16.510Z,39.52
2023-02-14T18:38:45.053Z,39.28
2023-02-14T18:41:14.325Z,40.33
2023-02-14T18:43:41.887Z,39.38
2023-02-14T18:46:11.456Z,38.78
2023-02-14T18:48:38.454Z,39.22
2023-02-14T18:51:10.542Z,39.62
2023-02-14T18:53:38.401Z,39.45
2023-02-14T18:56:06.659Z,38.43
2023-02-14T18:58:34.409Z,38.02
2023-02-14T19:01:13.045Z,38.26
2023-02-14T19:03:40.680Z,38.04
2023-02-14T19:06:09.402Z,42.09
2023-02-14T19:08:39.570Z,42.66
2023-02-14T19:11:18.423Z,41.35
2023-02-14T19:13:46.176Z,41.07
2023-02-14T19:16:19.492Z,41.53
2023-02-14T19:18:47.019Z,41.79
2023-02-14T19:21:20.145Z,41.42
2023-02-14T19:23:47.401Z,41.99
2023-02-14T19:26:24.705Z,41.13
2023-02-14T19:28:56.376Z,42.63
2023-02-14T19:31:23.472Z,42.59
2023-02-14T19:33:50.569Z,43.37
2023-02-14T19:36:19.413Z,44.24
2023-02-14T19:38:49.502Z,45.54
2023-02-14T19:41:26.468Z,45.42
2023-02-14T19:43:57.521Z,47.40
2023-02-14T19:46:26.170Z,48.12
2023-02-14T19:48:52.994Z,47.32
2023-02-14T19:51:25.915Z,48.56
2023-02-14T19:53:53.261Z,47.09
2023-02-14T19:56:21.389Z,46.07
2023-02-14T19:58:49.083Z,46.28
2023-02-14T20:01:36.840Z,45.65
2023-02-14T20:04:07.645Z,43.71
2023-02-14T20:06:34.249Z,42.93
2023-02-14T20:09:00.796Z,43.12
2023-02-14T20:11:35.601Z,41.99
2023-02-14T20:14:03.597Z,43.32
2023-02-14T20:16:32.081Z,43.24
2023-02-14T20:19:01.781Z,43.15
2023-02-14T20:21:28.582Z,45.96
2023-02-14T20:24:00.803Z,45.85
2023-02-14T20:26:32.940Z,46.11
2023-02-14T20:29:03.639Z,47.51
2023-02-14T20:31:32.010Z,48.93
2023-02-14T20:33:58.983Z,49.67
2023-02-14T20:36:25.902Z,49.88
2023-02-14T20:39:01.453Z,48.07
2023-02-14T20:41:29.052Z,47.81
2023-02-14T20:44:03.340Z,46.19
2023-02-14T20:46:31.195Z,46.10
2023-02-14T20:48:57.760Z,44.65
2023-02-14T20:51:24.419Z,44.60
2023-02-14T20:53:51.231Z,44.68
2023-02-14T20:56:18.678Z,44.24
2023-02-14T20:58:46.005Z,43.54
2023-02-14T21:01:14.328Z,42.27
2023-02-14T21:03:43.053Z,42.42
2023-02-14T21:06:13.756Z,41.58
2023-02-14T21:08:42.485Z,42.28
2023-02-14T21:11:11.748Z,41.31
2023-02-14T21:13:39.288Z,40.55
2023-02-14T21:16:12.277Z,40.78
2023-02-14T21:18:39.185Z,41.00
2023-02-14T21:21:06.607Z,40.35
2023-02-14T21:23:33.518Z,41.38
2023-02-14T21:26:00.110Z,40.74
2023-02-14T21:28:26.853Z,41.29
2023-02-14T21:31:02.570Z,41.75
2023-02-14T21:33:32.003Z,41.96
2023-02-14T21:36:06.069Z,42.42
2023-02-14T21:38:32.844Z,42.85
2023-02-14T21:41:04.949Z,44.47
2023-02-14T21:43:36.995Z,46.22
2023-02-14T21:46:08.656Z,46.19
2023-02-14T21:48:54.073Z,47.05
2023-02-14T21:51:21.827Z,49.54
2023-02-14T21:53:48.998Z,50.64
2023-02-14T21:56:19.624Z,51.66
2023-02-14T21:58:49.041Z,51.58
2023-02-14T22:01:18.281Z,50.89
2023-02-14T22:03:45.221Z,52.22
2023-02-14T22:06:13.228Z,51.59
2023-02-14T22:08:40.413Z,51.63
2023-02-14T22:11:09.604Z,53.33
2023-02-14T22:13:36.349Z,52.81
2023-02-14T22:16:05.629Z,53.23
2023-02-14T22:18:32.638Z,52.65
2023-02-14T22:21:07.211Z,53.03
2023-02-14T22:23:34.267Z,53.90
2023-02-14T22:26:19.310Z,54.66
2023-02-14T22:28:48.388Z,53.59
2023-02-14T22:31:17.653Z,55.02
2023-02-14T22:33:44.855Z,55.04
2023-02-14T22:36:11.426Z,54.02
2023-02-14T22:38:38.243Z,54.40
2023-02-14T22:41:09.368Z,54.91
2023-02-14T22:43:37.528Z,54.74
2023-02-14T22:46:13.298Z,53.83
2023-02-14T22:48:40.534Z,55.55
2023-02-14T22:51:17.813Z,55.48
2023-02-14T22:53:44.409Z,55.69
2023-02-14T22:56:33.052Z,57.17
2023-02-14T22:59:05.325Z,56.81
2023-02-14T23:01:34.359Z,57.15
2023-02-14T23:04:03.276Z,59.80
2023-02-14T23:06:32.411Z,59.31
2023-02-14T23:09:00.548Z,58.49
2023-02-14T23:11:29.608Z,57.82
2023-02-14T23:14:14.953Z,57.45
2023-02-14T23:17:00.808Z,55.71
2023-02-14T23:19:49.057Z,54.05
2023-02-14T23:22:25.210Z,52.64
2023-02-14T23:24:53.806Z,50.61
2023-02-14T23:27:23.268Z,50.96
2023-02-14T23:29:49.898Z,50.65
2023-02-14T23:32:16.683Z,50.13
2023-02-14T23:34:44.735Z,48.29
2023-02-14T23:37:13.666Z,44.72
2023-02-14T23:39:41.430Z,44.09
2023-02-14T23:42:16.408Z,44.15
2023-02-14T23:44:44.733Z,42.75
2023-02-14T23:47:13.325Z,42.56
2023-02-14T23:49:40.991Z,42.06
2023-02-14T23:52:12.988Z,42.10
2023-02-14T23:54:39.834Z,41.66
2023-02-14T23:57:08.129Z,42.03
2023-02-14T23:59:35.072Z,41.73
